sensor_id;sensor_type;location;lat;lon;timestamp;P1;durP1;ratioP1;P2;durP2;ratioP2
84050;SDS011;74137;50.136;19.040;2024-01-15T00:01:42;13.20;;;5.60;;
84050;SDS011;74137;50.136;19.040;2024-01-15T00:04:16;11.70;;;5.40;;
84050;SDS011;74137;50.136;19.040;2024-01-15T00:06:49;13.40;;;6.50;;
84050;SDS011;74137;50.136;19.040;2024-01-15T00:09:22;11.00;;;5.70;;
84050;SDS011;74137;50.136;19.040;2024-01-15T00:11:50;12.00;;;5.20;;
84050;SDS011;74137;50.136;19.040;2024-01-15T00:14:18;16.00;;;5.20;;
84050;SDS011;74137;50.136;19.040;2024-01-15T00:16:50;12.50;;;6.10;;
84050;SDS011;74137;50.136;19.040;2024-01-15T00:19:21;13.40;;;5.60;;
84050;SDS011;74137;50.136;19.040;2024-01-15T00:21:54;11.90;;;6.10;;
84050;SDS011;74137;50.136;19.040;2024-01-15T00:24:27;10.70;;;4.90;;
84050;SDS011;74137;50.136;19.040;2024-01-15T00:26:58;11.00;;;5.10;;
84050;SDS011;74137;50.136;19.040;2024-01-15T00:29:31;11.60;;;6.40;;
84050;SDS011;74137;50.136;19.040;2024-01-15T00:32:04;12.30;;;5.90;;
84050;SDS011;74137;50.136;19.040;2024-01-15T00:34:37;11.00;;;5.70;;
84050;SDS011;74137;50.136;19.040;2024-01-15T00:37:07;9.60;;;4.60;;
84050;SDS011;74137;50.136;19.040;2024-01-15T00:39:40;10.50;;;5.20;;
84050;SDS011;74137;50.136;19.040;2024-01-15T00:42:08;12.70;;;6.50;;
84050;SDS011;74137;50.136;19.040;2024-01-15T00:44:38;11.70;;;5.20;;
84050;SDS011;74137;50.136;19.040;2024-01-15T00:47:09;12.10;;;5.60;;
84050;SDS011;74137;50.136;19.040;2024-01-15T00:49:47;11.00;;;4.60;;
84050;SDS011;74137;50.136;19.040;2024-01-15T00:52:18;9.80;;;4.40;;
84050;SDS011;74137;50.136;19.040;2024-01-15T00:54:51;11.60;;;5.50;;
84050;SDS011;74137;50.136;19.040;2024-01-15T00:57:24;9.80;;;5.10;;
84050;SDS011;74137;50.136;19.040;2024-01-15T00:59:52;11.50;;;4.70;;
84050;SDS011;74137;50.136;19.040;2024-01-15T01:02:26;10.50;;;5.00;;
84050;SDS011;74137;50.136;19.040;2024-01-15T01:04:58;10.50;;;5.40;;
84050;SDS011;74137;50.136;19.040;2024-01-15T01:07:29;10.30;;;4.40;;
84050;SDS011;74137;50.136;19.040;2024-01-15T01:09:59;13.00;;;5.60;;
84050;SDS011;74137;50.136;19.040;2024-01-15T01:12:30;11.90;;;5.10;;
84050;SDS011;74137;50.136;19.040;2024-01-15T01:15:03;12.60;;;5.20;;
84050;SDS011;74137;50.136;19.040;2024-01-15T01:17:38;9.10;;;4.30;;
84050;SDS011;74137;50.136;19.040;2024-01-15T01:20:09;10.20;;;5.10;;
84050;SDS011;74137;50.136;19.040;2024-01-15T01:22:44;11.80;;;5.10;;
84050;SDS011;74137;50.136;19.040;2024-01-15T01:25:14;10.90;;;4.70;;
84050;SDS011;74137;50.136;19.040;2024-01-15T01:27:45;12.20;;;5.50;;
84050;SDS011;74137;50.136;19.040;2024-01-15T01:30:13;11.70;;;4.70;;
84050;SDS011;74137;50.136;19.040;2024-01-15T01:32:41;9.70;;;4.10;;
84050;SDS011;74137;50.136;19.040;2024-01-15T01:35:14;9.70;;;4.40;;
84050;SDS011;74137;50.136;19.040;2024-01-15T01:37:45;7.60;;;3.60;;
84050;SDS011;74137;50.136;19.040;2024-01-15T01:40:17;10.20;;;4.20;;
84050;SDS011;74137;50.136;19.040;2024-01-15T01:42:50;10.00;;;4.30;;
84050;SDS011;74137;50.136;19.040;2024-01-15T01:45:21;7.80;;;3.30;;
84050;SDS011;74137;50.136;19.040;2024-01-15T01:47:56;7.80;;;3.60;;
84050;SDS011;74137;50.136;19.040;2024-01-15T01:50:28;7.90;;;3.70;;
84050;SDS011;74137;50.136;19.040;2024-01-15T01:53:00;8.00;;;4.00;;
84050;SDS011;74137;50.136;19.040;2024-01-15T01:55:29;7.80;;;3.10;;
84050;SDS011;74137;50.136;19.040;2024-01-15T01:58:01;8.30;;;3.50;;
84050;SDS011;74137;50.136;19.040;2024-01-15T02:00:37;8.50;;;3.60;;
84050;SDS011;74137;50.136;19.040;2024-01-15T02:03:08;9.10;;;4.10;;
84050;SDS011;74137;50.136;19.040;2024-01-15T02:05:42;9.00;;;3.90;;
84050;SDS011;74137;50.136;19.040;2024-01-15T02:08:18;7.50;;;3.10;;
84050;SDS011;74137;50.136;19.040;2024-01-15T02:10:52;7.60;;;3.70;;
84050;SDS011;74137;50.136;19.040;2024-01-15T02:13:24;7.90;;;3.70;;
84050;SDS011;74137;50.136;19.040;2024-01-15T02:15:57;9.10;;;3.70;;
84050;SDS011;74137;50.136;19.040;2024-01-15T02:18:27;7.30;;;3.30;;
84050;SDS011;74137;50.136;19.040;2024-01-15T02:21:01;8.00;;;3.30;;
84050;SDS011;74137;50.136;19.040;2024-01-15T02:23:31;7.00;;;2.90;;
84050;SDS011;74137;50.136;19.040;2024-01-15T02:26:04;5.90;;;2.80;;
84050;SDS011;74137;50.136;19.040;2024-01-15T02:28:35;7.40;;;3.60;;
84050;SDS011;74137;50.136;19.040;2024-01-15T02:31:04;7.90;;;3.40;;
84050;SDS011;74137;50.136;19.040;2024-01-15T02:33:39;6.80;;;3.00;;
84050;SDS011;74137;50.136;19.040;2024-01-15T02:36:10;7.70;;;3.20;;
84050;SDS011;74137;50.136;19.040;2024-01-15T02:38:41;6.50;;;3.10;;
84050;SDS011;74137;50.136;19.040;2024-01-15T02:41:11;5.80;;;2.70;;
84050;SDS011;74137;50.136;19.040;2024-01-15T02:43:41;5.80;;;3.00;;
84050;SDS011;74137;50.136;19.040;2024-01-15T02:46:14;8.30;;;4.00;;
84050;SDS011;74137;50.136;19.040;2024-01-15T02:48:49;7.50;;;3.00;;
84050;SDS011;74137;50.136;19.040;2024-01-15T02:51:22;6.70;;;2.90;;
84050;SDS011;74137;50.136;19.040;2024-01-15T02:53:55;7.10;;;2.80;;
84050;SDS011;74137;50.136;19.040;2024-01-15T02:56:28;5.90;;;2.70;;
84050;SDS011;74137;50.136;19.040;2024-01-15T02:59:01;7.20;;;2.60;;
84050;SDS011;74137;50.136;19.040;2024-01-15T03:01:31;6.60;;;2.70;;
84050;SDS011;74137;50.136;19.040;2024-01-15T03:04:04;5.10;;;2.30;;
84050;SDS011;74137;50.136;19.040;2024-01-15T03:06:37;5.70;;;2.40;;
84050;SDS011;74137;50.136;19.040;2024-01-15T03:09:08;5.90;;;2.20;;
84050;SDS011;74137;50.136;19.040;2024-01-15T03:11:38;5.10;;;2.40;;
84050;SDS011;74137;50.136;19.040;2024-01-15T03:14:14;6.80;;;2.60;;
84050;SDS011;74137;50.136;19.040;2024-01-15T03:16:45;4.30;;;2.10;;
84050;SDS011;74137;50.136;19.040;2024-01-15T03:19:15;5.10;;;2.30;;
84050;SDS011;74137;50.136;19.040;2024-01-15T03:21:46;5.10;;;2.10;;
84050;SDS011;74137;50.136;19.040;2024-01-15T03:24:14;4.80;;;2.10;;
84050;SDS011;74137;50.136;19.040;2024-01-15T03:26:49;5.30;;;2.40;;
84050;SDS011;74137;50.136;19.040;2024-01-15T03:29:22;4.50;;;2.10;;
84050;SDS011;74137;50.136;19.040;2024-01-15T03:31:53;5.20;;;2.30;;
84050;SDS011;74137;50.136;19.040;2024-01-15T03:34:26;4.60;;;2.10;;
84050;SDS011;74137;50.136;19.040;2024-01-15T03:36:56;5.40;;;2.50;;
84050;SDS011;74137;50.136;19.040;2024-01-15T03:39:27;5.90;;;2.30;;
84050;SDS011;74137;50.136;19.040;2024-01-15T03:41:55;6.00;;;2.40;;
84050;SDS011;74137;50.136;19.040;2024-01-15T03:44:28;7.10;;;3.20;;
84050;SDS011;74137;50.136;19.040;2024-01-15T03:46:59;6.20;;;2.40;;
84050;SDS011;74137;50.136;19.040;2024-01-15T03:49:31;5.20;;;2.40;;
84050;SDS011;74137;50.136;19.040;2024-01-15T03:52:07;5.60;;;2.50;;
84050;SDS011;74137;50.136;19.040;2024-01-15T03:54:37;8.80;;;2.70;;
84050;SDS011;74137;50.136;19.040;2024-01-15T03:57:09;5.10;;;2.30;;
84050;SDS011;74137;50.136;19.040;2024-01-15T03:59:44;5.40;;;2.30;;
84050;SDS011;74137;50.136;19.040;2024-01-15T04:02:15;5.50;;;2.40;;
84050;SDS011;74137;50.136;19.040;2024-01-15T04:04:45;6.00;;;2.70;;
84050;SDS011;74137;50.136;19.040;2024-01-15T04:07:18;6.00;;;2.60;;
84050;SDS011;74137;50.136;19.040;2024-01-15T04:09:49;7.10;;;3.00;;
84050;SDS011;74137;50.136;19.040;2024-01-15T04:12:22;6.20;;;2.80;;
84050;SDS011;74137;50.136;19.040;2024-01-15T04:14:52;7.50;;;3.00;;
84050;SDS011;74137;50.136;19.040;2024-01-15T04:17:25;6.80;;;2.90;;
84050;SDS011;74137;50.136;19.040;2024-01-15T04:19:55;6.20;;;2.50;;
84050;SDS011;74137;50.136;19.040;2024-01-15T04:22:24;7.80;;;3.20;;
84050;SDS011;74137;50.136;19.040;2024-01-15T04:24:55;9.10;;;3.40;;
84050;SDS011;74137;50.136;19.040;2024-01-15T04:27:26;7.30;;;2.80;;
84050;SDS011;74137;50.136;19.040;2024-01-15T04:29:59;7.50;;;3.30;;
84050;SDS011;74137;50.136;19.040;2024-01-15T04:32:30;8.30;;;4.00;;
84050;SDS011;74137;50.136;19.040;2024-01-15T04:35:03;5.70;;;2.90;;
84050;SDS011;74137;50.136;19.040;2024-01-15T04:37:34;7.10;;;3.10;;
84050;SDS011;74137;50.136;19.040;2024-01-15T04:40:06;8.50;;;3.90;;
84050;SDS011;74137;50.136;19.040;2024-01-15T04:42:37;7.60;;;3.20;;
84050;SDS011;74137;50.136;19.040;2024-01-15T04:45:12;7.50;;;3.60;;
84050;SDS011;74137;50.136;19.040;2024-01-15T04:47:47;8.20;;;3.80;;
84050;SDS011;74137;50.136;19.040;2024-01-15T04:50:16;7.80;;;3.60;;
84050;SDS011;74137;50.136;19.040;2024-01-15T04:52:50;8.80;;;3.50;;
84050;SDS011;74137;50.136;19.040;2024-01-15T04:55:23;8.10;;;3.90;;
84050;SDS011;74137;50.136;19.040;2024-01-15T04:57:54;7.50;;;3.10;;
84050;SDS011;74137;50.136;19.040;2024-01-15T05:00:24;9.00;;;3.90;;
84050;SDS011;74137;50.136;19.040;2024-01-15T05:02:53;5.80;;;2.80;;
84050;SDS011;74137;50.136;19.040;2024-01-15T05:05:28;6.40;;;2.60;;
84050;SDS011;74137;50.136;19.040;2024-01-15T05:08:01;9.10;;;3.70;;
84050;SDS011;74137;50.136;19.040;2024-01-15T05:10:33;8.00;;;3.20;;
84050;SDS011;74137;50.136;19.040;2024-01-15T05:13:02;6.70;;;3.20;;
84050;SDS011;74137;50.136;19.040;2024-01-15T05:15:34;8.30;;;3.50;;
84050;SDS011;74137;50.136;19.040;2024-01-15T05:18:02;8.00;;;3.80;;
84050;SDS011;74137;50.136;19.040;2024-01-15T05:20:34;7.60;;;3.40;;
84050;SDS011;74137;50.136;19.040;2024-01-15T05:23:05;9.10;;;3.50;;
84050;SDS011;74137;50.136;19.040;2024-01-15T05:25:36;7.90;;;3.30;;
84050;SDS011;74137;50.136;19.040;2024-01-15T05:28:04;7.00;;;3.20;;
84050;SDS011;74137;50.136;19.040;2024-01-15T05:30:33;7.30;;;3.40;;
84050;SDS011;74137;50.136;19.040;2024-01-15T05:33:08;7.60;;;3.10;;
84050;SDS011;74137;50.136;19.040;2024-01-15T05:35:39;7.60;;;3.10;;
84050;SDS011;74137;50.136;19.040;2024-01-15T05:38:09;7.30;;;3.10;;
84050;SDS011;74137;50.136;19.040;2024-01-15T05:40:46;6.10;;;2.70;;
84050;SDS011;74137;50.136;19.040;2024-01-15T05:43:17;5.60;;;2.50;;
84050;SDS011;74137;50.136;19.040;2024-01-15T05:45:47;7.00;;;3.40;;
84050;SDS011;74137;50.136;19.040;2024-01-15T05:48:17;5.50;;;2.90;;
84050;SDS011;74137;50.136;19.040;2024-01-15T05:50:51;8.30;;;3.10;;
84050;SDS011;74137;50.136;19.040;2024-01-15T05:53:24;8.40;;;3.30;;
84050;SDS011;74137;50.136;19.040;2024-01-15T05:55:54;5.90;;;2.70;;
84050;SDS011;74137;50.136;19.040;2024-01-15T05:58:23;8.40;;;3.40;;
84050;SDS011;74137;50.136;19.040;2024-01-15T06:00:57;8.80;;;3.20;;
84050;SDS011;74137;50.136;19.040;2024-01-15T06:03:25;8.80;;;3.60;;
84050;SDS011;74137;50.136;19.040;2024-01-15T06:05:54;6.80;;;3.20;;
84050;SDS011;74137;50.136;19.040;2024-01-15T06:08:29;10.20;;;3.80;;
84050;SDS011;74137;50.136;19.040;2024-01-15T06:10:59;7.20;;;3.30;;
84050;SDS011;74137;50.136;19.040;2024-01-15T06:13:29;8.70;;;3.40;;
84050;SDS011;74137;50.136;19.040;2024-01-15T06:15:57;6.80;;;3.40;;
84050;SDS011;74137;50.136;19.040;2024-01-15T06:18:30;8.90;;;3.80;;
84050;SDS011;74137;50.136;19.040;2024-01-15T06:21:03;9.30;;;3.50;;
84050;SDS011;74137;50.136;19.040;2024-01-15T06:23:32;8.80;;;3.30;;
84050;SDS011;74137;50.136;19.040;2024-01-15T06:26:05;8.50;;;3.50;;
84050;SDS011;74137;50.136;19.040;2024-01-15T06:28:38;8.60;;;4.00;;
84050;SDS011;74137;50.136;19.040;2024-01-15T06:31:06;7.60;;;3.60;;
84050;SDS011;74137;50.136;19.040;2024-01-15T06:33:40;8.00;;;3.30;;
84050;SDS011;74137;50.136;19.040;2024-01-15T06:36:09;7.60;;;3.50;;
84050;SDS011;74137;50.136;19.040;2024-01-15T06:38:44;9.00;;;3.50;;
84050;SDS011;74137;50.136;19.040;2024-01-15T06:41:12;9.00;;;4.20;;
84050;SDS011;74137;50.136;19.040;2024-01-15T06:43:53;8.20;;;3.70;;
84050;SDS011;74137;50.136;19.040;2024-01-15T06:46:21;7.10;;;3.20;;
84050;SDS011;74137;50.136;19.040;2024-01-15T06:48:53;8.30;;;4.00;;
84050;SDS011;74137;50.136;19.040;2024-01-15T06:51:23;10.20;;;3.70;;
84050;SDS011;74137;50.136;19.040;2024-01-15T06:53:54;9.20;;;4.20;;
84050;SDS011;74137;50.136;19.040;2024-01-15T06:56:24;9.80;;;4.20;;
84050;SDS011;74137;50.136;19.040;2024-01-15T06:58:57;9.20;;;4.70;;
84050;SDS011;74137;50.136;19.040;2024-01-15T07:01:28;8.30;;;4.30;;
84050;SDS011;74137;50.136;19.040;2024-01-15T07:03:57;9.60;;;5.10;;
84050;SDS011;74137;50.136;19.040;2024-01-15T07:06:27;8.90;;;4.00;;
84050;SDS011;74137;50.136;19.040;2024-01-15T07:08:57;8.50;;;4.40;;
84050;SDS011;74137;50.136;19.040;2024-01-15T07:11:28;10.00;;;5.20;;
84050;SDS011;74137;50.136;19.040;2024-01-15T07:14:00;10.70;;;4.80;;
84050;SDS011;74137;50.136;19.040;2024-01-15T07:16:32;13.00;;;5.60;;
84050;SDS011;74137;50.136;19.040;2024-01-15T07:19:09;14.20;;;6.90;;
84050;SDS011;74137;50.136;19.040;2024-01-15T07:21:38;10.60;;;5.20;;
84050;SDS011;74137;50.136;19.040;2024-01-15T07:24:08;12.30;;;5.30;;
84050;SDS011;74137;50.136;19.040;2024-01-15T07:26:44;13.10;;;5.50;;
84050;SDS011;74137;50.136;19.040;2024-01-15T07:29:12;12.10;;;5.60;;
84050;SDS011;74137;50.136;19.040;2024-01-15T07:31:49;9.90;;;4.60;;
84050;SDS011;74137;50.136;19.040;2024-01-15T07:34:21;11.70;;;5.70;;
84050;SDS011;74137;50.136;19.040;2024-01-15T07:36:52;10.70;;;5.70;;
84050;SDS011;74137;50.136;19.040;2024-01-15T07:39:24;11.60;;;5.30;;
84050;SDS011;74137;50.136;19.040;2024-01-15T07:41:53;12.60;;;5.60;;
84050;SDS011;74137;50.136;19.040;2024-01-15T07:44:23;10.80;;;4.80;;
84050;SDS011;74137;50.136;19.040;2024-01-15T07:46:56;9.30;;;4.50;;
84050;SDS011;74137;50.136;19.040;2024-01-15T07:49:24;12.50;;;6.60;;
84050;SDS011;74137;50.136;19.040;2024-01-15T07:51:58;12.40;;;6.70;;
84050;SDS011;74137;50.136;19.040;2024-01-15T07:54:30;12.40;;;6.60;;
84050;SDS011;74137;50.136;19.040;2024-01-15T07:57:04;12.70;;;5.40;;
84050;SDS011;74137;50.136;19.040;2024-01-15T07:59:37;9.80;;;5.10;;
84050;SDS011;74137;50.136;19.040;2024-01-15T08:02:05;11.70;;;5.30;;
84050;SDS011;74137;50.136;19.040;2024-01-15T08:04:36;14.30;;;6.70;;
84050;SDS011;74137;50.136;19.040;2024-01-15T08:07:09;12.30;;;6.00;;
84050;SDS011;74137;50.136;19.040;2024-01-15T08:09:37;12.20;;;6.10;;
84050;SDS011;74137;50.136;19.040;2024-01-15T08:12:09;11.60;;;5.60;;
84050;SDS011;74137;50.136;19.040;2024-01-15T08:14:40;12.20;;;5.40;;
84050;SDS011;74137;50.136;19.040;2024-01-15T08:17:16;15.20;;;7.00;;
84050;SDS011;74137;50.136;19.040;2024-01-15T08:19:49;12.80;;;6.40;;
84050;SDS011;74137;50.136;19.040;2024-01-15T08:22:18;10.90;;;5.40;;
84050;SDS011;74137;50.136;19.040;2024-01-15T08:24:51;13.80;;;6.60;;
84050;SDS011;74137;50.136;19.040;2024-01-15T08:27:25;12.20;;;6.30;;
84050;SDS011;74137;50.136;19.040;2024-01-15T08:29:53;15.70;;;7.10;;
84050;SDS011;74137;50.136;19.040;2024-01-15T08:32:26;13.50;;;6.90;;
84050;SDS011;74137;50.136;19.040;2024-01-15T08:34:59;11.10;;;5.70;;
84050;SDS011;74137;50.136;19.040;2024-01-15T08:37:28;12.20;;;6.40;;
84050;SDS011;74137;50.136;19.040;2024-01-15T08:39:58;12.70;;;6.50;;
84050;SDS011;74137;50.136;19.040;2024-01-15T08:42:31;11.80;;;7.00;;
84050;SDS011;74137;50.136;19.040;2024-01-15T08:45:06;12.70;;;6.10;;
84050;SDS011;74137;50.136;19.040;2024-01-15T08:47:35;12.60;;;6.10;;
84050;SDS011;74137;50.136;19.040;2024-01-15T08:50:08;12.40;;;6.80;;
84050;SDS011;74137;50.136;19.040;2024-01-15T08:52:38;14.90;;;6.80;;
84050;SDS011;74137;50.136;19.040;2024-01-15T08:55:09;16.10;;;7.50;;
84050;SDS011;74137;50.136;19.040;2024-01-15T08:57:37;18.60;;;8.10;;
84050;SDS011;74137;50.136;19.040;2024-01-15T09:00:07;18.50;;;9.50;;
84050;SDS011;74137;50.136;19.040;2024-01-15T09:02:36;19.70;;;8.40;;
84050;SDS011;74137;50.136;19.040;2024-01-15T09:05:09;17.20;;;8.90;;
84050;SDS011;74137;50.136;19.040;2024-01-15T09:07:40;16.80;;;8.00;;
84050;SDS011;74137;50.136;19.040;2024-01-15T09:10:08;17.30;;;8.20;;
84050;SDS011;74137;50.136;19.040;2024-01-15T09:12:44;16.40;;;8.30;;
84050;SDS011;74137;50.136;19.040;2024-01-15T09:15:13;16.20;;;8.60;;
84050;SDS011;74137;50.136;19.040;2024-01-15T09:17:46;13.20;;;6.90;;
84050;SDS011;74137;50.136;19.040;2024-01-15T09:20:16;16.10;;;7.90;;
84050;SDS011;74137;50.136;19.040;2024-01-15T09:22:48;15.70;;;7.90;;
84050;SDS011;74137;50.136;19.040;2024-01-15T09:25:21;17.30;;;8.40;;
84050;SDS011;74137;50.136;19.040;2024-01-15T09:27:58;17.10;;;9.00;;
84050;SDS011;74137;50.136;19.040;2024-01-15T09:30:29;15.80;;;8.40;;
84050;SDS011;74137;50.136;19.040;2024-01-15T09:33:02;16.60;;;9.80;;
84050;SDS011;74137;50.136;19.040;2024-01-15T09:35:32;14.00;;;7.60;;
84050;SDS011;74137;50.136;19.040;2024-01-15T09:38:03;13.50;;;7.30;;
84050;SDS011;74137;50.136;19.040;2024-01-15T09:40:33;14.50;;;7.90;;
84050;SDS011;74137;50.136;19.040;2024-01-15T09:43:06;16.40;;;8.40;;
84050;SDS011;74137;50.136;19.040;2024-01-15T09:45:39;14.70;;;7.90;;
84050;SDS011;74137;50.136;19.040;2024-01-15T09:48:13;13.30;;;7.10;;
84050;SDS011;74137;50.136;19.040;2024-01-15T09:50:43;13.30;;;7.20;;
84050;SDS011;74137;50.136;19.040;2024-01-15T09:53:16;13.90;;;7.50;;
84050;SDS011;74137;50.136;19.040;2024-01-15T09:55:52;14.90;;;8.00;;
84050;SDS011;74137;50.136;19.040;2024-01-15T09:58:23;14.60;;;7.70;;
84050;SDS011;74137;50.136;19.040;2024-01-15T10:00:56;14.60;;;8.00;;
84050;SDS011;74137;50.136;19.040;2024-01-15T10:03:32;12.90;;;6.70;;
84050;SDS011;74137;50.136;19.040;2024-01-15T10:06:03;13.80;;;7.20;;
84050;SDS011;74137;50.136;19.040;2024-01-15T10:08:35;13.70;;;6.90;;
84050;SDS011;74137;50.136;19.040;2024-01-15T10:11:09;16.00;;;8.00;;
84050;SDS011;74137;50.136;19.040;2024-01-15T10:13:45;15.30;;;7.90;;
84050;SDS011;74137;50.136;19.040;2024-01-15T10:16:29;17.90;;;8.70;;
84050;SDS011;74137;50.136;19.040;2024-01-15T10:19:00;16.80;;;9.50;;
84050;SDS011;74137;50.136;19.040;2024-01-15T10:21:34;14.80;;;8.00;;
84050;SDS011;74137;50.136;19.040;2024-01-15T10:24:05;16.70;;;8.20;;
84050;SDS011;74137;50.136;19.040;2024-01-15T10:26:35;17.80;;;9.60;;
84050;SDS011;74137;50.136;19.040;2024-01-15T10:29:05;15.40;;;8.50;;
84050;SDS011;74137;50.136;19.040;2024-01-15T10:31:35;17.10;;;9.80;;
84050;SDS011;74137;50.136;19.040;2024-01-15T10:34:14;15.70;;;8.60;;
84050;SDS011;74137;50.136;19.040;2024-01-15T10:36:46;17.50;;;9.10;;
84050;SDS011;74137;50.136;19.040;2024-01-15T10:39:22;16.30;;;8.90;;
84050;SDS011;74137;50.136;19.040;2024-01-15T10:41:55;17.50;;;9.40;;
84050;SDS011;74137;50.136;19.040;2024-01-15T10:44:28;17.50;;;8.80;;
84050;SDS011;74137;50.136;19.040;2024-01-15T10:46:59;13.30;;;8.40;;
84050;SDS011;74137;50.136;19.040;2024-01-15T10:49:34;15.00;;;8.90;;
84050;SDS011;74137;50.136;19.040;2024-01-15T10:52:05;14.60;;;8.10;;
84050;SDS011;74137;50.136;19.040;2024-01-15T10:54:36;14.30;;;8.30;;
84050;SDS011;74137;50.136;19.040;2024-01-15T10:57:05;15.40;;;8.50;;
84050;SDS011;74137;50.136;19.040;2024-01-15T10:59:41;14.80;;;8.20;;
84050;SDS011;74137;50.136;19.040;2024-01-15T11:02:14;15.80;;;8.90;;
84050;SDS011;74137;50.136;19.040;2024-01-15T11:04:47;15.60;;;8.70;;
84050;SDS011;74137;50.136;19.040;2024-01-15T11:07:18;17.90;;;8.60;;
84050;SDS011;74137;50.136;19.040;2024-01-15T11:09:55;18.10;;;9.40;;
84050;SDS011;74137;50.136;19.040;2024-01-15T11:12:25;17.90;;;9.60;;
84050;SDS011;74137;50.136;19.040;2024-01-15T11:15:03;16.60;;;9.40;;
84050;SDS011;74137;50.136;19.040;2024-01-15T11:18:21;16.80;;;9.00;;
84050;SDS011;74137;50.136;19.040;2024-01-15T11:20:32;15.70;;;8.50;;
84050;SDS011;74137;50.136;19.040;2024-01-15T11:23:07;15.80;;;9.00;;
84050;SDS011;74137;50.136;19.040;2024-01-15T15:06:19;14.10;;;6.50;;
84050;SDS011;74137;50.136;19.040;2024-01-15T15:54:05;14.00;;;6.90;;
84050;SDS011;74137;50.136;19.040;2024-01-15T15:56:33;14.60;;;6.60;;
84050;SDS011;74137;50.136;19.040;2024-01-15T15:59:06;14.40;;;7.10;;
84050;SDS011;74137;50.136;19.040;2024-01-15T16:01:37;13.50;;;6.20;;
84050;SDS011;74137;50.136;19.040;2024-01-15T16:04:13;13.40;;;5.60;;
84050;SDS011;74137;50.136;19.040;2024-01-15T16:06:43;12.80;;;5.80;;
84050;SDS011;74137;50.136;19.040;2024-01-15T16:09:16;13.40;;;5.50;;
84050;SDS011;74137;50.136;19.040;2024-01-15T16:11:44;13.70;;;6.20;;
84050;SDS011;74137;50.136;19.040;2024-01-15T16:14:15;11.60;;;5.70;;
84050;SDS011;74137;50.136;19.040;2024-01-15T16:16:49;11.80;;;5.50;;
84050;SDS011;74137;50.136;19.040;2024-01-15T16:19:41;13.80;;;7.20;;
84050;SDS011;74137;50.136;19.040;2024-01-15T16:22:34;13.50;;;5.80;;
84050;SDS011;74137;50.136;19.040;2024-01-15T16:25:30;13.30;;;6.50;;
84050;SDS011;74137;50.136;19.040;2024-01-15T16:28:04;14.60;;;6.90;;
84050;SDS011;74137;50.136;19.040;2024-01-15T16:30:36;16.90;;;8.30;;
84050;SDS011;74137;50.136;19.040;2024-01-15T16:33:12;17.50;;;8.70;;
84050;SDS011;74137;50.136;19.040;2024-01-15T16:35:45;14.00;;;6.80;;
84050;SDS011;74137;50.136;19.040;2024-01-15T16:38:19;14.70;;;6.70;;
84050;SDS011;74137;50.136;19.040;2024-01-15T16:40:49;12.50;;;5.50;;
84050;SDS011;74137;50.136;19.040;2024-01-15T16:43:22;12.00;;;6.00;;
84050;SDS011;74137;50.136;19.040;2024-01-15T16:45:53;11.70;;;6.00;;
84050;SDS011;74137;50.136;19.040;2024-01-15T16:48:24;13.70;;;6.10;;
84050;SDS011;74137;50.136;19.040;2024-01-15T16:50:54;15.30;;;6.90;;
84050;SDS011;74137;50.136;19.040;2024-01-15T16:53:23;12.80;;;7.20;;
84050;SDS011;74137;50.136;19.040;2024-01-15T16:55:53;14.70;;;6.60;;
84050;SDS011;74137;50.136;19.040;2024-01-15T16:58:22;12.60;;;6.10;;
84050;SDS011;74137;50.136;19.040;2024-01-15T17:00:50;12.90;;;6.30;;
84050;SDS011;74137;50.136;19.040;2024-01-15T17:03:20;12.30;;;5.90;;
84050;SDS011;74137;50.136;19.040;2024-01-15T17:05:50;14.90;;;6.50;;
84050;SDS011;74137;50.136;19.040;2024-01-15T17:08:25;14.70;;;7.00;;
84050;SDS011;74137;50.136;19.040;2024-01-15T17:10:56;14.50;;;6.90;;
84050;SDS011;74137;50.136;19.040;2024-01-15T17:13:28;14.80;;;6.00;;
84050;SDS011;74137;50.136;19.040;2024-01-15T17:15:56;14.10;;;6.20;;
84050;SDS011;74137;50.136;19.040;2024-01-15T17:18:25;13.30;;;6.60;;
84050;SDS011;74137;50.136;19.040;2024-01-15T17:20:54;10.70;;;5.70;;
84050;SDS011;74137;50.136;19.040;2024-01-15T17:23:23;11.00;;;6.30;;
84050;SDS011;74137;50.136;19.040;2024-01-15T17:25:56;13.70;;;6.60;;
84050;SDS011;74137;50.136;19.040;2024-01-15T17:28:26;13.40;;;6.00;;
84050;SDS011;74137;50.136;19.040;2024-01-15T17:30:57;16.10;;;7.00;;
84050;SDS011;74137;50.136;19.040;2024-01-15T17:33:27;14.00;;;6.60;;
84050;SDS011;74137;50.136;19.040;2024-01-15T17:35:59;12.10;;;5.80;;
84050;SDS011;74137;50.136;19.040;2024-01-15T17:38:33;16.90;;;8.00;;
84050;SDS011;74137;50.136;19.040;2024-01-15T17:41:06;16.50;;;8.30;;
84050;SDS011;74137;50.136;19.040;2024-01-15T17:43:37;16.10;;;6.70;;
84050;SDS011;74137;50.136;19.040;2024-01-15T17:46:07;13.40;;;5.90;;
84050;SDS011;74137;50.136;19.040;2024-01-15T17:48:37;14.10;;;6.70;;
84050;SDS011;74137;50.136;19.040;2024-01-15T17:51:08;16.70;;;7.20;;
84050;SDS011;74137;50.136;19.040;2024-01-15T17:53:38;16.70;;;8.30;;
84050;SDS011;74137;50.136;19.040;2024-01-15T17:56:06;14.00;;;6.00;;
84050;SDS011;74137;50.136;19.040;2024-01-15T17:58:35;13.60;;;6.60;;
84050;SDS011;74137;50.136;19.040;2024-01-15T18:01:05;12.90;;;6.50;;
84050;SDS011;74137;50.136;19.040;2024-01-15T18:03:33;16.80;;;7.00;;
84050;SDS011;74137;50.136;19.040;2024-01-15T18:06:04;14.60;;;7.20;;
84050;SDS011;74137;50.136;19.040;2024-01-15T18:08:32;17.10;;;6.10;;
84050;SDS011;74137;50.136;19.040;2024-01-15T18:11:01;13.40;;;6.50;;
84050;SDS011;74137;50.136;19.040;2024-01-15T18:13:32;12.30;;;6.10;;
84050;SDS011;74137;50.136;19.040;2024-01-15T18:16:00;14.20;;;6.20;;
84050;SDS011;74137;50.136;19.040;2024-01-15T18:18:31;14.60;;;7.00;;
84050;SDS011;74137;50.136;19.040;2024-01-15T18:21:02;11.80;;;5.40;;
84050;SDS011;74137;50.136;19.040;2024-01-15T18:23:37;17.00;;;7.50;;
84050;SDS011;74137;50.136;19.040;2024-01-15T18:26:05;10.70;;;5.20;;
84050;SDS011;74137;50.136;19.040;2024-01-15T18:28:41;10.30;;;5.00;;
84050;SDS011;74137;50.136;19.040;2024-01-15T18:31:16;11.60;;;5.30;;
84050;SDS011;74137;50.136;19.040;2024-01-15T18:33:44;10.00;;;5.10;;
84050;SDS011;74137;50.136;19.040;2024-01-15T18:36:13;12.00;;;5.50;;
84050;SDS011;74137;50.136;19.040;2024-01-15T18:38:41;10.70;;;5.50;;
84050;SDS011;74137;50.136;19.040;2024-01-15T18:41:21;11.00;;;5.50;;
84050;SDS011;74137;50.136;19.040;2024-01-15T18:43:52;13.20;;;6.00;;
84050;SDS011;74137;50.136;19.040;2024-01-15T18:46:27;11.60;;;5.10;;
84050;SDS011;74137;50.136;19.040;2024-01-15T18:48:56;11.90;;;5.70;;
84050;SDS011;74137;50.136;19.040;2024-01-15T18:51:29;11.20;;;5.10;;
84050;SDS011;74137;50.136;19.040;2024-01-15T18:53:59;11.80;;;5.70;;
84050;SDS011;74137;50.136;19.040;2024-01-15T18:56:30;9.80;;;5.00;;
84050;SDS011;74137;50.136;19.040;2024-01-15T18:59:01;12.00;;;4.90;;
84050;SDS011;74137;50.136;19.040;2024-01-15T19:01:34;10.40;;;4.80;;
84050;SDS011;74137;50.136;19.040;2024-01-15T19:04:08;11.80;;;5.80;;
84050;SDS011;74137;50.136;19.040;2024-01-15T19:06:38;11.80;;;5.60;;
84050;SDS011;74137;50.136;19.040;2024-01-15T19:09:10;12.30;;;5.30;;
84050;SDS011;74137;50.136;19.040;2024-01-15T19:11:40;10.50;;;5.40;;
84050;SDS011;74137;50.136;19.040;2024-01-15T19:14:12;13.60;;;6.10;;
84050;SDS011;74137;50.136;19.040;2024-01-15T19:16:42;12.60;;;5.00;;
84050;SDS011;74137;50.136;19.040;2024-01-15T19:19:12;10.60;;;5.00;;